Time;durP1;ratioP1;P1;durP2;ratioP2;P2;SDS_P1;SDS_P2;PMS_P1;PMS_P2;Temp;Humidity;BMP_temperature;BMP_pressure;BME280_temperature;BME280_humidity;BME280_pressure;Samples;Min_cycle;Max_cycle;Signal;HPM_P1;HPM_P2
2023/03/26 00:01:57;;;;;;;288.40;41.50;;;;;;;2.73;85.53;64004.13;5093097;28;20036;-77
2023/03/26 00:04:24;;;;;;;304.33;34.88;;;;;;;2.71;85.61;64001.88;5092690;28;20052;-77
2023/03/26 00:06:50;;;;;;;334.85;35.17;;;;;;;2.65;85.32;63995.75;5075089;28;20074;-77
2023/03/26 00:09:17;;;;;;;362.63;40.83;;;;;;;2.61;85.83;63991.84;5108587;28;20547;-77
2023/03/26 00:11:45;;;;;;;298.92;30.58;;;;;;;2.63;85.77;63994.09;5093172;28;20032;-77
2023/03/26 00:14:12;;;;;;;254.95;24.65;;;;;;;2.63;85.61;63993.50;5078541;28;20039;-78
2023/03/26 00:16:40;;;;;;;390.90;32.95;;;;;;;2.56;85.89;63986.25;5096690;28;20414;-78
2023/03/26 00:19:07;;;;;;;345.50;28.80;;;;;;;2.55;86.29;63984.59;5095486;28;20392;-76
2023/03/26 00:21:33;;;;;;;303.05;25.75;;;;;;;2.56;86.35;63986.25;5096640;28;20043;-78
2023/03/26 00:24:03;;;;;;;227.23;25.88;;;;;;;2.59;85.81;63989.59;5095223;28;20048;-78
2023/03/26 00:26:31;;;;;;;305.92;26.38;;;;;;;2.61;86.32;63991.84;5095482;28;20090;-77
2023/03/26 00:28:59;;;;;;;269.52;24.27;;;;;;;2.63;86.37;63994.09;5094958;28;20502;-77
2023/03/26 00:31:25;;;;;;;288.90;24.67;;;;;;;2.65;86.33;63996.31;5078261;28;20044;-77
2023/03/26 00:33:54;;;;;;;304.27;20.73;;;;;;;2.67;86.07;63997.97;5096315;28;20047;-77
2023/03/26 00:36:21;;;;;;;;;;;;;;;2.66;86.13;63996.88;5095557;28;20044;-76
2023/03/26 00:38:47;;;;;;;312.85;21.45;;;;;;;2.47;86.80;63975.66;5078024;28;19915;-78
2023/03/26 00:41:21;;;;;;;330.60;22.00;;;;;;;2.43;86.76;63971.75;5096595;28;20040;-77
2023/03/26 00:43:49;;;;;;;390.30;20.95;;;;;;;2.39;87.10;63967.28;5078077;28;20040;-78
2023/03/26 00:46:16;;;;;;;409.63;24.40;;;;;;;2.34;87.81;63962.25;5094799;28;20048;-78
2023/03/26 00:48:43;;;;;;;376.25;23.13;;;;;;;2.38;87.96;63966.72;5094822;28;20047;-76
2023/03/26 00:51:11;;;;;;;498.67;28.27;;;;;;;2.41;87.88;63969.53;5078003;28;20047;-77
2023/03/26 00:53:37;;;;;;;324.35;20.77;;;;;;;2.47;87.75;63976.22;5111498;28;20040;-77
2023/03/26 00:56:05;;;;;;;325.38;19.83;;;;;;;2.41;87.88;63969.53;5094871;28;20066;-77
2023/03/26 00:58:32;;;;;;;423.13;26.10;;;;;;;2.44;87.91;63972.84;5094681;28;20055;-78
2023/03/26 01:01:01;;;;;;;621.08;30.92;;;;;;;2.47;88.16;63976.22;5094697;28;20043;-78
2023/03/26 01:03:32;;;;;;;225.18;18.15;;;;;;;2.56;87.85;63986.25;5094555;28;20055;-78
2023/03/26 01:06:06;;;;;;;407.98;19.55;;;;;;;2.58;88.06;63988.50;5094774;28;20051;-77
2023/03/26 01:08:37;;;;;;;288.85;20.10;;;;;;;2.55;88.60;63985.13;5094612;28;20048;-77
2023/03/26 01:11:12;;;;;;;304.85;21.23;;;;;;;2.46;89.04;63975.09;5095874;28;20075;-77
2023/03/26 01:13:44;;;;;;;278.15;23.98;;;;;;;2.50;89.05;63979.56;5094430;28;20040;-77
2023/03/26 01:16:25;;;;;;;265.35;18.10;;;;;;;2.57;89.21;63987.38;5094438;28;20032;-78
2023/03/26 01:18:52;;;;;;;331.60;21.75;;;;;;;2.60;88.94;63990.19;5077619;28;20415;-78
2023/03/26 01:21:28;;;;;;;288.15;20.23;;;;;;;2.65;88.70;63995.75;5094423;28;20039;-78
2023/03/26 01:23:56;;;;;;;249.05;17.98;;;;;;;2.63;88.94;63994.09;5110738;28;20449;-78
2023/03/26 01:26:37;;;;;;;209.70;16.98;;;;;;;2.67;88.99;63997.97;5093968;28;20154;-79
2023/03/26 01:29:08;;;;;;;208.70;16.08;;;;;;;2.63;89.00;63993.50;5077179;28;20055;-78
2023/03/26 01:32:08;;;;;;;265.38;16.48;;;;;;;2.64;89.31;63995.19;5094304;28;20411;-79
2023/03/26 01:35:01;;;;;;;201.93;15.02;;;;;;;2.65;89.37;63996.31;5094025;28;20048;-79
2023/03/26 01:37:57;;;;;;;185.07;15.02;;;;;;;2.63;89.54;63993.50;5094349;28;20043;-79
2023/03/26 01:40:45;;;;;;;161.35;15.52;;;;;;;2.62;89.72;63992.41;5095295;28;20505;-77
2023/03/26 01:43:21;;;;;;;212.57;16.98;;;;;;;2.63;89.98;63994.09;5093964;28;20070;-78
2023/03/26 01:45:49;;;;;;;206.95;17.25;;;;;;;2.72;89.60;64003.00;5077653;28;20066;-78
2023/03/26 01:48:16;;;;;;;323.52;21.85;;;;;;;2.70;89.35;64000.78;5076859;28;20039;-79
2023/03/26 01:50:42;;;;;;;242.65;16.45;;;;;;;2.66;89.81;63997.41;5095078;28;20052;-78
2023/03/26 01:53:10;;;;;;;253.52;19.08;;;;;;;2.70;89.94;64000.78;5093587;28;20048;-77
2023/03/26 01:56:05;;;;;;;144.45;15.70;;;;;;;2.74;89.73;64005.78;5093580;28;20040;-77
2023/03/26 01:58:45;;;;;;;197.27;15.95;;;;;;;2.68;90.13;63999.66;5087495;28;20050;-78
2023/03/26 02:01:29;;;;;;;254.93;18.95;;;;;;;2.75;89.88;64006.38;5110476;28;20047;-78
2023/03/26 02:04:10;;;;;;;119.80;13.85;;;;;;;2.83;89.73;64015.28;5076612;28;20050;-78
2023/03/26 02:06:47;;;;;;;200.10;18.48;;;;;;;2.84;89.27;64016.41;5076785;28;20047;-77
2023/03/26 02:09:23;;;;;;;36.67;14.77;;;;;;;2.91;89.08;64024.22;5076807;28;20036;-77
2023/03/26 02:11:50;;;;;;;120.25;18.73;;;;;;;2.91;89.38;64024.78;5093172;28;20594;-78
2023/03/26 02:14:16;;;;;;;67.70;16.90;;;;;;;2.95;88.74;64028.13;5076371;28;20403;-78
2023/03/26 02:16:45;;;;;;;65.35;18.40;;;;;;;2.97;88.88;64030.94;5109893;28;20513;-78
2023/03/26 02:19:14;;;;;;;60.55;19.02;;;;;;;3.03;88.52;64037.63;5093380;28;20047;-79
2023/03/26 02:21:41;;;;;;;94.10;19.40;;;;;;;3.04;88.33;64038.19;5094216;28;20069;-77
2023/03/26 02:24:07;;;;;;;77.72;20.25;;;;;;;3.12;88.32;64047.69;5076003;28;20052;-77
2023/03/26 02:26:36;;;;;;;108.15;19.25;;;;;;;3.11;88.38;64046.56;5092661;28;20509;-77
2023/03/26 02:29:20;;;;;;;95.90;21.02;;;;;;;3.10;88.36;64045.44;5075611;28;20074;-78
2023/03/26 02:31:47;;;;;;;123.28;20.70;;;;;;;3.12;88.72;64047.69;5075634;28;20040;-77
2023/03/26 02:34:14;;;;;;;93.32;24.02;;;;;;;3.15;88.32;64051.03;5092701;28;20050;-78
2023/03/26 02:36:46;;;;;;;113.45;21.90;;;;;;;3.10;88.85;64045.44;5074755;28;20075;-78
2023/03/26 02:39:13;;;;;;;180.18;25.65;;;;;;;3.17;88.72;64068.97;5092766;28;20181;-78
2023/03/26 02:41:40;;;;;;;146.75;23.35;;;;;;;3.27;88.30;64063.88;5092582;28;20040;-77
2023/03/26 02:44:09;;;;;;;122.07;25.58;;;;;;;3.28;88.04;64064.44;5092631;28;20079;-77
2023/03/26 02:46:58;;;;;;;119.63;25.63;;;;;;;3.38;87.79;64075.59;5085231;28;20083;-78
2023/03/26 02:49:42;;;;;;;359.40;32.70;;;;;;;3.49;87.86;64087.34;5093720;28;20413;-78
2023/03/26 02:52:11;;;;;;;;;;;;;;;3.52;87.40;64091.25;5092804;28;20066;-76
2023/03/26 02:54:37;;;;;;;277.98;31.67;;;;;;;3.53;87.50;64092.38;5092567;28;19926;-77
2023/03/26 02:57:06;;;;;;;383.27;35.75;;;;;;;3.55;87.24;64094.59;5094007;28;20042;-77
2023/03/26 02:59:58;;;;;;;256.65;33.97;;;;;;;3.52;86.93;64091.25;5077138;28;20055;-77
2023/03/26 03:02:37;;;;;;;573.85;40.65;;;;;;;3.66;87.05;64106.34;5092319;28;20081;-79
2023/03/26 03:05:31;;;;;;;224.35;34.45;;;;;;;3.84;87.00;64125.91;5069135;28;20135;-78
2023/03/26 03:08:17;;;;;;;261.75;33.30;;;;;;;3.93;86.50;64135.41;5087936;28;20078;-79
2023/03/26 03:11:10;;;;;;;127.97;31.52;;;;;;;4.23;86.95;64168.41;5069319;28;20052;-78
2023/03/26 03:13:46;;;;;;;119.95;31.75;;;;;;;4.35;86.40;64182.38;5055005;28;20151;-80
2023/03/26 03:16:16;;;;;;;113.72;33.05;;;;;;;4.41;85.61;64187.97;5072212;28;20055;-78
2023/03/26 03:18:42;;;;;;;112.70;34.05;;;;;;;4.54;85.02;64203.06;5091944;28;20039;-79
2023/03/26 03:21:08;;;;;;;159.93;38.80;;;;;;;4.71;84.82;64220.97;5058247;28;20139;-78
2023/03/26 03:23:34;;;;;;;304.88;47.55;;;;;;;4.63;83.92;64213.16;5074738;28;20067;-79
2023/03/26 03:26:26;;;;;;;525.30;53.13;;;;;;;4.73;83.77;64223.22;5074608;28;20036;-78
2023/03/26 03:28:58;;;;;;;450.25;50.90;;;;;;;4.60;82.28;64209.78;5057779;28;20186;-80
2023/03/26 03:31:25;;;;;;;482.08;50.45;;;;;;;4.54;82.42;64203.06;5054554;28;20073;-81
2023/03/26 03:33:52;;;;;;;505.35;52.83;;;;;;;4.52;82.28;64200.84;5071240;28;20067;-79
2023/03/26 03:36:21;;;;;;;628.05;57.65;;;;;;;4.41;82.04;64187.97;5071160;28;20127;-78
2023/03/26 03:38:53;;;;;;;352.25;45.63;;;;;;;4.50;82.49;64198.59;5055778;28;20055;-78
2023/03/26 03:41:21;;;;;;;354.23;45.33;;;;;;;4.61;81.98;64210.34;5071401;28;20045;-77
2023/03/26 03:43:47;;;;;;;270.70;42.60;;;;;;;4.79;82.52;64229.94;5072096;28;20056;-86
2023/03/26 03:46:18;;;;;;;256.15;44.88;;;;;;;5.02;82.56;64255.66;5071953;28;20151;-78
2023/03/26 03:48:48;;;;;;;275.63;44.90;;;;;;;5.48;83.09;64306.03;5078484;28;20052;-83
2023/03/26 03:51:18;;;;;;;322.52;43.47;;;;;;;5.63;82.23;64322.28;5056521;28;20052;-76
2023/03/26 03:54:10;;;;;;;189.18;40.42;;;;;;;5.70;80.94;64330.13;5072554;28;20048;-76
2023/03/26 03:56:46;;;;;;;159.85;43.28;;;;;;;5.83;79.89;64344.13;5072490;28;20037;-78
2023/03/26 03:59:11;;;;;;;157.25;41.47;;;;;;;5.72;78.25;64332.38;5071134;28;20036;-80
2023/03/26 04:01:37;;;;;;;161.05;40.92;;;;;;;5.62;77.71;64320.59;5054669;28;20155;-76
2023/03/26 04:04:08;;;;;;;149.70;36.90;;;;;;;5.44;77.93;64301.56;5070860;28;20040;-78
2023/03/26 04:06:45;;;;;;;136.32;37.05;;;;;;;5.45;78.22;64302.13;5074446;28;20090;-79
2023/03/26 04:09:14;;;;;;;126.13;35.57;;;;;;;5.35;78.30;64292.03;5079092;28;20117;-78
2023/03/26 04:11:40;;;;;;;133.32;37.25;;;;;;;5.27;78.23;64282.53;5064310;28;20552;-81
2023/03/26 04:14:23;;;;;;;149.93;39.55;;;;;;;5.07;78.42;64260.69;5071273;28;20041;-77
2023/03/26 04:17:01;;;;;;;135.70;37.28;;;;;;;5.34;79.45;64290.94;5071062;28;20051;-78
2023/03/26 04:19:30;;;;;;;;;;;;;;;5.49;79.08;64306.59;5054643;28;20037;-79
2023/03/26 04:22:01;;;;;;;107.30;34.20;;;;;;;5.49;78.63;64307.16;5037841;28;19938;-82
2023/03/26 04:24:37;;;;;;;111.25;35.00;;;;;;;5.44;78.48;64301.00;5071413;28;20146;-79
2023/03/26 04:27:27;;;;;;;112.38;36.92;;;;;;;5.60;78.64;64319.50;5072199;28;20040;-81
2023/03/26 04:30:01;;;;;;;113.22;37.67;;;;;;;5.51;78.24;64309.41;5055462;28;20048;-81
2023/03/26 04:32:32;;;;;;;131.27;41.80;;;;;;;5.56;78.90;64314.44;5054838;28;20098;-81
2023/03/26 04:35:02;;;;;;;149.20;45.38;;;;;;;5.50;78.61;64308.28;5088222;28;20040;-84
2023/03/26 04:37:38;;;;;;;139.63;45.28;;;;;;;5.72;79.68;64332.38;5054671;28;20391;-80
2023/03/26 04:40:16;;;;;;;146.00;47.58;;;;;;;5.91;79.92;64353.09;5054236;28;20041;-81
2023/03/26 04:43:13;;;;;;;129.10;46.53;;;;;;;6.04;78.87;64367.66;5020159;28;20052;-81
2023/03/26 04:45:57;;;;;;;145.25;46.97;;;;;;;5.96;77.65;64358.69;5070852;28;20153;-78
2023/03/26 04:48:25;;;;;;;142.70;48.90;;;;;;;6.06;77.69;64369.91;5054671;28;20126;-81
2023/03/26 04:50:51;;;;;;;129.30;45.85;;;;;;;6.21;77.17;64385.59;5070875;28;20159;-78
2023/03/26 04:53:20;;;;;;;122.20;43.25;;;;;;;6.27;76.98;64392.31;5070552;28;20047;-77
2023/03/26 04:56:16;;;;;;;113.97;42.17;;;;;;;6.39;76.91;64405.75;5070573;28;20048;-81
2023/03/26 04:59:15;;;;;;;105.32;38.70;;;;;;;6.23;76.33;64387.84;5040605;28;20500;-80
2023/03/26 05:01:44;;;;;;;94.57;36.78;;;;;;;6.32;76.39;64398.50;5041362;28;20043;-78
2023/03/26 05:04:12;;;;;;;98.80;36.05;;;;;;;6.27;76.26;64392.31;5074975;28;20507;-78
2023/03/26 05:06:40;;;;;;;96.35;36.88;;;;;;;6.26;76.16;64391.75;5057196;28;20071;-79
2023/03/26 05:09:15;;;;;;;96.63;36.83;;;;;;;6.23;76.74;64387.84;5060419;28;20047;-78
2023/03/26 05:12:16;;;;;;;78.25;34.03;;;;;;;6.31;75.96;64397.34;5052802;28;20055;-78
2023/03/26 05:15:03;;;;;;;79.45;33.78;;;;;;;6.20;75.84;64384.47;5091110;28;20059;-80
2023/03/26 05:17:50;;;;;;;72.25;31.67;;;;;;;6.23;76.23;64387.84;5092344;28;20101;-79
2023/03/26 05:20:29;;;;;;;63.83;30.30;;;;;;;6.34;76.03;64400.16;5081553;28;20044;-79
2023/03/26 05:22:55;;;;;;;55.55;25.85;;;;;;;6.40;75.85;64406.34;5057417;28;20052;-78
2023/03/26 05:25:27;;;;;;;57.95;27.60;;;;;;;6.42;75.63;64409.13;5040966;28;20037;-77
2023/03/26 05:27:54;;;;;;;59.45;27.33;;;;;;;6.48;75.44;64415.84;5073194;28;20440;-77
2023/03/26 05:30:23;;;;;;;53.75;23.73;;;;;;;6.35;74.84;64401.28;5040639;28;20048;-78
2023/03/26 05:32:54;;;;;;;47.47;22.52;;;;;;;6.43;75.29;64410.25;5090763;28;20056;-79
2023/03/26 05:35:24;;;;;;;42.40;20.38;;;;;;;6.38;75.43;64404.63;5059354;28;20048;-82
2023/03/26 05:37:50;;;;;;;41.33;21.17;;;;;;;6.42;75.11;64409.13;5081165;28;20044;-79
2023/03/26 05:40:20;;;;;;;42.42;21.90;;;;;;;6.43;75.29;64410.25;5056777;28;20098;-78
2023/03/26 05:42:51;;;;;;;49.25;21.25;;;;;;;6.55;75.38;64423.69;5090537;28;20052;-79
2023/03/26 05:45:36;;;;;;;44.58;20.35;;;;;;;6.55;74.80;64423.16;5106504;28;20027;-79
2023/03/26 05:48:17;;;;;;;39.95;19.02;;;;;;;6.73;75.00;64443.31;5060667;28;20032;-80
2023/03/26 05:50:43;;;;;;;35.50;19.52;;;;;;;6.81;74.40;64451.72;5093228;28;20410;-81
2023/03/26 05:53:09;;;;;;;36.60;19.13;;;;;;;6.97;74.34;64469.66;5094212;28;20126;-80
2023/03/26 05:56:01;;;;;;;38.25;19.35;;;;;;;7.10;73.67;64483.13;5070072;28;20048;-79
2023/03/26 05:58:59;;;;;;;38.17;18.83;;;;;;;7.27;73.35;64502.75;5081860;28;20140;-81
2023/03/26 06:01:43;;;;;;;41.10;20.05;;;;;;;7.37;72.36;64513.41;5094277;28;20126;-78
2023/03/26 06:04:47;;;;;;;33.50;19.70;;;;;;;7.59;72.35;64536.97;5043029;28;20566;-79
2023/03/26 06:07:32;;;;;;;33.65;19.70;;;;;;;7.63;71.40;64541.44;5032578;28;20045;-79
2023/03/26 06:10:09;;;;;;;36.30;20.65;;;;;;;7.85;71.33;64565.59;5067350;28;20052;-78
2023/03/26 06:12:35;;;;;;;36.03;20.00;;;;;;;7.97;70.42;64579.06;5092706;28;20083;-82
2023/03/26 06:15:02;;;;;;;31.58;19.13;;;;;;;8.13;70.16;64597.03;5075766;28;20082;-79
2023/03/26 06:17:46;;;;;;;26.23;17.80;;;;;;;8.22;69.85;64606.56;5110078;28;20047;-79
2023/03/26 06:20:40;;;;;;;35.88;18.83;;;;;;;8.30;69.25;64614.97;5090533;28;20762;-81
2023/03/26 06:23:38;;;;;;;35.05;18.20;;;;;;;8.40;69.05;64626.81;5075322;28;20047;-77
2023/03/26 06:26:26;;;;;;;31.95;17.80;;;;;;;8.63;68.90;64652.06;5108985;28;20491;-78
2023/03/26 06:29:01;;;;;;;29.08;17.13;;;;;;;8.71;68.35;64661.06;5073306;28;20062;-79
2023/03/26 06:31:43;;;;;;;26.65;15.75;;;;;;;8.91;67.92;64682.97;5072988;28;20499;-77
2023/03/26 06:34:32;;;;;;;27.65;15.65;;;;;;;9.22;67.35;64716.69;5087581;28;20495;-79
2023/03/26 06:36:58;;;;;;;24.58;15.00;;;;;;;9.14;65.78;64707.66;5089523;28;20051;-78
2023/03/26 06:39:24;;;;;;;20.75;13.00;;;;;;;8.98;65.96;64690.81;5090142;28;20074;-77
2023/03/26 06:42:06;;;;;;;21.63;13.27;;;;;;;9.08;65.93;64701.50;5090637;28;20071;-78
2023/03/26 06:45:01;;;;;;;23.38;14.38;;;;;;;9.36;65.47;64732.41;5083150;28;20067;-78
2023/03/26 06:47:33;;;;;;;34.00;13.15;;;;;;;9.43;64.91;64740.28;5093303;28;20383;-79
2023/03/26 06:50:18;;;;;;;19.95;12.63;;;;;;;9.16;64.39;64709.94;5092574;28;20052;-78
2023/03/26 06:53:03;;;;;;;22.33;13.75;;;;;;;9.13;65.28;64706.56;5093603;28;20047;-77
2023/03/26 06:55:53;;;;;;;20.83;11.95;;;;;;;9.09;64.90;64702.63;5090253;28;20052;-78
2023/03/26 06:58:19;;;;;;;19.65;12.95;;;;;;;9.08;65.25;64701.50;5075981;28;20054;-78
2023/03/26 07:01:20;;;;;;;23.33;13.05;;;;;;;9.15;65.80;64708.81;5051054;28;20435;-81
2023/03/26 07:04:04;;;;;;;22.23;12.30;;;;;;;9.08;64.87;64701.50;5089747;28;20051;-78
2023/03/26 07:06:48;;;;;;;18.65;12.63;;;;;;;9.17;65.57;64711.06;5093298;28;20055;-78
2023/03/26 07:09:33;;;;;;;15.80;11.77;;;;;;;9.36;65.38;64732.41;5093473;28;20048;-77
2023/03/26 07:12:19;;;;;;;17.67;10.90;;;;;;;9.10;65.12;64703.19;5082373;28;20040;-78
2023/03/26 07:15:04;;;;;;;16.63;10.40;;;;;;;8.94;65.35;64686.31;5092331;28;20062;-78
2023/03/26 07:17:49;;;;;;;15.63;9.40;;;;;;;8.99;65.44;64691.41;5093485;28;20059;-77
2023/03/26 07:20:25;;;;;;;13.15;9.07;;;;;;;8.99;65.47;64691.97;5092365;28;20550;-79
2023/03/26 07:22:52;;;;;;;12.82;8.07;;;;;;;8.91;65.36;64682.97;5091308;28;20051;-79
2023/03/26 07:25:57;;;;;;;13.05;8.02;;;;;;;9.00;65.18;64693.06;5030728;28;20049;-77
2023/03/26 07:28:50;;;;;;;12.57;8.05;;;;;;;8.94;65.28;64685.78;5030371;28;20192;-79
2023/03/26 07:31:46;;;;;;;12.60;8.43;;;;;;;8.87;65.44;64677.91;5064642;28;20514;-78
2023/03/26 07:34:42;;;;;;;13.35;8.40;;;;;;;8.79;65.94;64668.91;5091599;28;20059;-79
2023/03/26 07:37:47;;;;;;;12.27;8.80;;;;;;;9.03;66.09;64695.31;5105238;28;20079;-79
2023/03/26 07:41:06;;;;;;;10.57;8.25;;;;;;;9.30;64.72;64725.66;5092562;28;20044;-76
2023/03/26 07:44:02;;;;;;;14.93;9.07;;;;;;;9.66;64.51;64765.00;5092255;28;20048;-78
2023/03/26 07:46:52;;;;;;;14.37;8.10;;;;;;;10.21;63.11;64825.75;5091487;28;20074;-79
2023/03/26 07:49:19;;;;;;;10.48;7.63;;;;;;;10.28;62.18;64833.63;5091053;28;20491;-77
2023/03/26 07:52:25;;;;;;;11.18;7.57;;;;;;;10.18;61.72;64822.38;5030420;28;20056;-80
2023/03/26 07:55:18;;;;;;;9.68;6.75;;;;;;;10.60;61.22;64868.50;4978854;28;20571;-78
2023/03/26 07:58:38;;;;;;;8.35;7.05;;;;;;;10.59;60.39;64867.41;5068345;28;20066;-79
2023/03/26 08:02:02;;;;;;;7.55;6.72;;;;;;;10.63;60.22;64871.91;5105644;28;20097;-80
2023/03/26 08:05:03;;;;;;;8.80;7.22;;;;;;;10.85;60.13;64896.66;5090812;28;20044;-79
2023/03/26 08:08:15;;;;;;;8.02;7.20;;;;;;;10.67;59.73;64876.94;5089860;28;20040;-80
2023/03/26 08:11:00;;;;;;;11.90;7.03;;;;;;;10.59;59.92;64867.94;5091137;28;20043;-77
2023/03/26 08:13:52;;;;;;;10.55;7.43;;;;;;;10.57;60.26;64865.13;5091272;28;20150;-78
2023/03/26 08:16:35;;;;;;;13.30;8.13;;;;;;;10.44;60.70;64851.63;5057815;28;20048;-79
2023/03/26 08:19:10;;;;;;;11.65;7.97;;;;;;;10.49;60.43;64856.13;5091263;28;20040;-78
2023/03/26 08:22:01;;;;;;;14.40;7.53;;;;;;;10.43;60.71;64850.50;5091587;28;20036;-78
2023/03/26 08:24:52;;;;;;;9.05;7.10;;;;;;;10.41;60.73;64848.25;5091287;28;20087;-78
2023/03/26 08:27:39;;;;;;;9.23;7.05;;;;;;;10.39;61.05;64846.03;5091003;28;20083;-79
2023/03/26 08:30:13;;;;;;;11.18;7.45;;;;;;;10.44;61.13;64851.06;5092196;28;20044;-77
2023/03/26 08:32:51;;;;;;;12.77;8.23;;;;;;;10.48;60.59;64855.00;5075444;28;20043;-78
2023/03/26 08:35:20;;;;;;;8.02;6.40;;;;;;;10.58;61.12;64866.84;5096491;28;20043;-79
2023/03/26 08:37:47;;;;;;;11.70;6.88;;;;;;;10.76;60.18;64885.97;5112236;28;20146;-77
2023/03/26 08:40:18;;;;;;;7.78;6.55;;;;;;;10.69;60.12;64878.66;5096315;28;20036;-78
2023/03/26 08:42:56;;;;;;;7.35;6.65;;;;;;;10.61;60.10;64869.66;5078602;28;20051;-79
2023/03/26 08:45:37;;;;;;;11.77;6.03;;;;;;;10.49;60.23;64856.13;5078246;28;20036;-78
2023/03/26 08:48:34;;;;;;;7.40;6.35;;;;;;;10.66;60.29;64875.84;5111881;28;20126;-79
2023/03/26 08:51:36;;;;;;;9.48;6.30;;;;;;;10.89;59.51;64901.16;5112423;28;20071;-80
2023/03/26 08:54:22;;;;;;;9.88;6.50;;;;;;;10.91;59.61;64902.84;5069125;28;20051;-77
2023/03/26 08:56:57;;;;;;;7.88;6.93;;;;;;;11.12;59.61;64926.47;5111673;28;20040;-79
2023/03/26 09:00:10;;;;;;;8.48;6.20;;;;;;;11.15;58.44;64929.88;5078080;28;20047;-77
2023/03/26 09:03:12;;;;;;;9.65;7.32;;;;;;;11.22;58.66;64937.19;5053467;28;20498;-78
2023/03/26 09:05:47;;;;;;;9.02;6.68;;;;;;;11.59;57.70;64977.75;5053330;28;20049;-78
2023/03/26 09:08:25;;;;;;;7.82;6.32;;;;;;;11.66;57.74;64986.19;5083906;28;20075;-78
2023/03/26 09:10:51;;;;;;;10.32;7.03;;;;;;;11.60;57.39;64979.41;5077316;28;20047;-78
2023/03/26 09:13:41;;;;;;;11.63;7.70;;;;;;;11.57;57.89;64975.47;5110674;28;20043;-78
2023/03/26 09:16:34;;;;;;;10.18;6.90;;;;;;;11.45;57.54;64961.97;5076813;28;20046;-78
2023/03/26 09:19:21;;;;;;;9.25;6.60;;;;;;;11.45;58.29;64961.97;5093901;28;20143;-78
2023/03/26 09:22:17;;;;;;;10.23;7.35;;;;;;;11.72;57.46;64991.81;5077088;28;20128;-78
2023/03/26 09:25:02;;;;;;;8.60;7.25;;;;;;;11.66;57.38;64986.19;5077331;28;20387;-77
2023/03/26 09:27:55;;;;;;;11.05;7.13;;;;;;;11.35;57.44;64951.81;5094700;28;20055;-78
2023/03/26 09:30:53;;;;;;;10.98;7.82;;;;;;;11.66;57.49;64985.63;5095442;28;20048;-78
2023/03/26 09:34:00;;;;;;;8.30;6.53;;;;;;;12.39;59.50;65066.78;5076938;28;20402;-87
2023/03/26 09:36:32;;;;;;;7.25;6.15;;;;;;;12.95;56.65;65127.66;5085571;28;20044;-80
2023/03/26 09:39:40;;;;;;;9.32;6.43;;;;;;;13.22;56.67;65158.13;5040727;28;20040;-87
2023/03/26 09:42:16;;;;;;;7.25;5.72;;;;;;;13.72;55.17;65213.44;5048398;28;20071;-82
2023/03/26 09:45:00;;;;;;;6.60;5.90;;;;;;;14.20;54.90;65266.50;5074211;28;20146;-84
2023/03/26 09:47:46;;;;;;;8.05;6.60;;;;;;;14.62;52.70;65312.81;5076850;28;20051;-86
2023/03/26 09:50:12;;;;;;;7.95;6.90;;;;;;;14.57;50.88;65307.19;5080647;28;20076;-85
2023/03/26 09:52:49;;;;;;;8.88;6.68;;;;;;;14.21;50.77;65267.06;5093727;28;20048;-80
2023/03/26 09:55:32;;;;;;;9.70;7.05;;;;;;;13.90;51.67;65233.19;5076539;28;20143;-78
2023/03/26 09:58:20;;;;;;;16.88;7.05;;;;;;;14.14;50.67;65259.72;5076759;28;20491;-78
2023/03/26 10:00:45;;;;;;;9.27;6.85;;;;;;;13.81;50.61;65223.59;5075866;28;20085;-79
2023/03/26 10:03:11;;;;;;;8.93;7.35;;;;;;;13.54;51.85;65193.13;5088673;28;20416;-79
2023/03/26 10:06:05;;;;;;;15.70;8.02;;;;;;;13.28;52.55;65164.91;5072942;28;20385;-77
2023/03/26 10:09:08;;;;;;;8.73;7.28;;;;;;;13.23;52.47;65159.25;5091345;28;20047;-78
2023/03/26 10:11:55;;;;;;;15.05;7.80;;;;;;;12.80;53.74;65111.88;5094100;28;20134;-78
2023/03/26 10:14:48;;;;;;;9.65;7.43;;;;;;;12.87;53.29;65119.22;5071505;28;20040;-77
2023/03/26 10:17:49;;;;;;;9.15;7.40;;;;;;;12.92;53.35;65124.28;5046847;28;20093;-78
2023/03/26 10:20:27;;;;;;;9.88;7.55;;;;;;;13.05;52.76;65139.53;5076497;28;20135;-78
2023/03/26 10:23:19;;;;;;;10.15;7.70;;;;;;;12.95;53.31;65128.22;5094537;28;20487;-79
2023/03/26 10:26:09;;;;;;;10.73;8.50;;;;;;;12.67;53.70;65097.22;5072671;28;20569;-78
2023/03/26 10:29:03;;;;;;;11.57;8.27;;;;;;;12.38;54.41;65065.66;5055382;28;20109;-79
2023/03/26 10:31:58;;;;;;;10.95;7.97;;;;;;;11.95;55.28;65017.19;5072029;28;20072;-78
2023/03/26 10:35:02;;;;;;;13.88;8.40;;;;;;;11.80;56.10;65000.81;5073442;28;20040;-78
2023/03/26 10:37:31;;;;;;;13.68;9.13;;;;;;;11.70;56.58;64990.13;5055568;28;20059;-78
2023/03/26 10:40:13;;;;;;;15.57;9.13;;;;;;;11.61;56.98;64979.97;5081713;28;20122;-79
2023/03/26 10:42:49;;;;;;;14.13;9.10;;;;;;;11.37;57.80;64953.53;5108691;28;20126;-80
2023/03/26 10:45:24;;;;;;;12.82;8.85;;;;;;;11.15;57.99;64929.88;5075062;28;20040;-80
2023/03/26 10:48:27;;;;;;;13.85;9.60;;;;;;;11.19;58.29;64934.38;5075654;28;20036;-78
2023/03/26 10:51:08;;;;;;;14.70;9.30;;;;;;;11.11;58.53;64925.38;5074667;28;20044;-78
2023/03/26 10:53:46;;;;;;;15.25;10.18;;;;;;;11.07;58.52;64920.31;5091645;28;20070;-76
2023/03/26 10:56:16;;;;;;;15.35;11.15;;;;;;;10.94;59.04;64906.81;5091891;28;20048;-78
2023/03/26 10:58:42;;;;;;;13.68;10.80;;;;;;;11.04;59.04;64917.47;5056043;28;20040;-79
2023/03/26 11:01:25;;;;;;;13.90;10.77;;;;;;;11.16;59.16;64931.00;5081731;28;20048;-77
2023/03/26 11:03:53;;;;;;;17.08;11.52;;;;;;;11.30;58.59;64945.63;5055216;28;20048;-78
2023/03/26 11:06:31;;;;;;;19.73;11.93;;;;;;;11.37;58.67;64954.09;5071532;28;20127;-77
2023/03/26 11:09:38;;;;;;;19.48;12.75;;;;;;;11.38;58.46;64955.19;5038372;28;20044;-77
2023/03/26 11:12:09;;;;;;;20.58;14.00;;;;;;;11.19;59.17;64934.38;5053384;28;20056;-78
2023/03/26 11:14:47;;;;;;;17.55;13.32;;;;;;;11.21;59.42;64936.06;5038359;28;20071;-78
2023/03/26 11:17:29;;;;;;;18.52;13.52;;;;;;;11.13;59.34;64927.03;5071322;28;20178;-77
2023/03/26 11:20:16;;;;;;;21.60;14.38;;;;;;;11.09;59.23;64923.09;5071382;28;20051;-77
2023/03/26 11:23:14;;;;;;;20.70;14.52;;;;;;;11.02;59.15;64914.66;5071204;28;20036;-78
2023/03/26 11:25:40;;;;;;;18.30;13.45;;;;;;;10.97;59.91;64909.03;5068524;28;20079;-77
2023/03/26 11:28:18;;;;;;;20.92;13.77;;;;;;;10.81;60.11;64892.16;5070357;28;20082;-77
2023/03/26 11:30:54;;;;;;;17.00;12.60;;;;;;;10.76;60.29;64885.97;5037882;28;20143;-77
2023/03/26 11:33:26;;;;;;;20.02;13.60;;;;;;;10.73;60.69;64882.59;5070884;28;20032;-77
2023/03/26 11:35:57;;;;;;;19.38;13.23;;;;;;;10.82;60.48;64893.28;5057610;28;20510;-79
2023/03/26 11:38:42;;;;;;;19.85;14.35;;;;;;;10.78;60.55;64888.78;5091097;28;20044;-78
2023/03/26 11:41:17;;;;;;;29.73;15.48;;;;;;;10.96;60.49;64908.47;5073475;28;20080;-78
2023/03/26 11:44:12;;;;;;;23.85;14.05;;;;;;;10.77;60.81;64887.66;5074402;28;20040;-78
2023/03/26 11:46:44;;;;;;;23.92;13.55;;;;;;;10.77;60.81;64887.66;5089731;28;20113;-77
2023/03/26 11:49:13;;;;;;;20.02;13.27;;;;;;;10.59;61.18;64867.41;5092640;28;20093;-77
2023/03/26 11:51:42;;;;;;;19.35;14.50;;;;;;;10.66;61.03;64875.28;5090917;28;20396;-78
2023/03/26 11:54:11;;;;;;;22.30;14.85;;;;;;;10.72;60.97;64882.03;5073961;28;20048;-77
2023/03/26 11:56:48;;;;;;;25.05;14.70;;;;;;;10.62;60.64;64870.78;5073396;28;20156;-79
2023/03/26 11:59:19;;;;;;;18.95;14.80;;;;;;;10.43;61.27;64849.97;5091840;28;20576;-79
2023/03/26 12:01:49;;;;;;;21.42;15.63;;;;;;;10.34;62.04;64839.81;5090541;28;20127;-76
2023/03/26 12:04:24;;;;;;;20.85;14.32;;;;;;;10.13;62.44;64816.75;5091906;28;20480;-77
2023/03/26 12:07:03;;;;;;;24.25;14.60;;;;;;;10.05;62.70;64807.75;5090653;28;20043;-77
2023/03/26 12:09:29;;;;;;;20.77;15.15;;;;;;;10.01;62.93;64803.25;5095257;28;20070;-77
2023/03/26 12:12:01;;;;;;;25.58;14.30;;;;;;;9.90;63.16;64792.00;5095638;28;20040;-77
2023/03/26 12:14:31;;;;;;;21.10;14.60;;;;;;;9.88;63.46;64789.19;5095724;28;20134;-78
2023/03/26 12:17:13;;;;;;;21.83;15.38;;;;;;;10.06;63.08;64808.88;5094866;28;20036;-77
2023/03/26 12:19:43;;;;;;;29.95;14.93;;;;;;;10.12;63.12;64816.19;5095341;28;20048;-77